Ana Sayfa
METAR-TAF:

METAR-TAF

Havaalanları :

Richmond, Virginia, Amerika Birleşik Devletleri

Enlem: 37-24-24N, Boylam: 077-31-30W, yükseklik: 72 m

Güncel hava durumu gözlemi

Rapor saat 15:56 UTC de 27 dakika önce yapıldı.
Sakin rüzgar
Sıcaklık 33°C
Nem 59%
Basınç 1016 hPa
Görüş mesafesi: 16.1 km
3400 ft yükseklikte parçalı bulutlu
5000 ft yükseklikte parçalı çok bulutlu

METAR: KFCI 191556Z AUTO 00000KT 10SM SCT034 BKN050 33/24 A3000 RMK AO2 SLP166 T03280244

Saat: 12:23 (16:23 UTC)


TAF: eksik

4.000'den fazla havaalanı için hava durumu gözlemleri ve tahminleri (METAR ve TAF raporları).

Kullanılabilir istasyonlar harita üzerinde sarı ve kırmızı noktalarla gösterilir.

İstasyonun adını görmek için fareyi noktanın üzerinde gezdirin.

Sonrasında hava gözlem ve tahminlerini görmek için tıklayın.

Haritayı değiştirmek için: yaklaştırmak için siyah artı işaretli yeşil düğmeye ve uzaklaştırmak için de eksi işaretli düğmeye hızla tıklayın; bitişik haritalar için yeşil okları kullanın.


METAR-TAF: